»·PEaware :: TPX761 KSAN-KLAS

TPX761 :: KSAN-KLAS

FLIGHT INFORMATION

Flight Status: Arrived
Operator: ATP Experience
More flights by this operator :: More flights under this callsign
Pilot: Ben F. (2808)
Aircraft: BOEING 737-800
(B738)
More flights by this aircraft type
Origin: KSAN San Diego Intl-Lindbergh
United States
Destination: KLAS McCarran Intl
United States
More flights between these airports :: More routes between these airports
Route: PADRZ2 CHKNN SEBBY YELAH MISEN KEPEC6
File this flight plan on PilotEdge
Remarks:
Altitude:
(Current/Filed)
29,000ft
Speed:
(Current/Filed)
454kts
Departed: 12-Jan-20 08:57 AM
Arrived: 12-Jan-20 09:53 AM
Distance/Time
Traveled:
225nm/0:56
Distance/Time
To Go:
Arrived

Flight Plot

Page will automatically refresh every two minutes.

Flight plan parsing failed; only flown route is shown


Map Options




Map Legend


Flown Route
Filed Route
Departure Airport
Arrival Airport
Navaid (VOR, NDB)
Fix

Horizontal Profiles

Position Reports

Time Latitude Longitude Heading Altitude Ground
Speed
12-Jan-20 08:41 32.732490 -117.195447 312 23ft 0kts
12-Jan-20 08:42 32.732490 -117.195447 312 23ft 0kts
12-Jan-20 08:43 32.732490 -117.195447 312 23ft 0kts
12-Jan-20 08:44 32.732490 -117.195447 312 23ft 0kts
12-Jan-20 08:45 32.732490 -117.195447 312 23ft 0kts
12-Jan-20 08:46 32.732490 -117.195447 312 23ft 0kts
12-Jan-20 08:47 32.732490 -117.195447 312 23ft 0kts
12-Jan-20 08:48 32.732490 -117.195447 312 23ft 0kts
12-Jan-20 08:49 32.732122 -117.195018 335 23ft 2kts
12-Jan-20 08:50 32.731954 -117.194983 16 23ft 0kts
12-Jan-20 08:51 32.731954 -117.194983 16 23ft 0kts
12-Jan-20 08:52 32.731956 -117.194983 16 23ft 0kts
12-Jan-20 08:53 32.732853 -117.194480 29 23ft 0kts
12-Jan-20 08:54 32.733019 -117.191710 105 23ft 22kts
12-Jan-20 08:55 32.731310 -117.184637 105 23ft 20kts
12-Jan-20 08:56 32.729788 -117.178371 108 23ft 18kts
12-Jan-20 08:57 32.731171 -117.179752 285 23ft 76kts
12-Jan-20 08:58 32.747596 -117.227092 303 1882ft 179kts
12-Jan-20 08:59 32.782265 -117.288181 304 3930ft 256kts
12-Jan-20 08:59 32.817405 -117.347064 308 6851ft 266kts
12-Jan-20 09:00 32.863421 -117.417235 307 10332ft 270kts
12-Jan-20 09:02 32.921928 -117.508210 306 12799ft 326kts
12-Jan-20 09:02 32.968806 -117.581054 306 15349ft 337kts
12-Jan-20 09:04 33.036609 -117.687142 305 18678ft 353kts
12-Jan-20 09:04 33.092981 -117.759687 317 20784ft 367kts
12-Jan-20 09:05 33.172244 -117.839840 316 23069ft 379kts
12-Jan-20 09:07 33.268815 -117.935194 317 25472ft 391kts
12-Jan-20 09:07 33.339755 -118.004269 317 26994ft 398kts
12-Jan-20 09:08 33.426279 -118.088795 317 28820ft 400kts
12-Jan-20 09:09 33.512752 -118.173919 317 29197ft 402kts
12-Jan-20 09:10 33.604187 -118.251258 328 29203ft 407kts
12-Jan-20 09:11 33.709024 -118.304296 346 29202ft 419kts
12-Jan-20 09:12 33.816777 -118.247857 46 29212ft 468kts
12-Jan-20 09:13 33.892547 -118.119360 43 29208ft 466kts
12-Jan-20 09:14 33.977363 -118.001393 43 29205ft 466kts
12-Jan-20 09:15 34.062012 -117.883221 43 29206ft 466kts
12-Jan-20 09:16 34.147032 -117.764884 43 29200ft 466kts
12-Jan-20 09:17 34.234065 -117.643302 43 29193ft 490kts
12-Jan-20 09:18 34.322841 -117.518554 43 29194ft 489kts
12-Jan-20 09:19 34.411428 -117.393583 43 29198ft 490kts
12-Jan-20 09:20 34.500257 -117.267833 43 29199ft 491kts
12-Jan-20 09:21 34.589062 -117.141661 43 29199ft 492kts
12-Jan-20 09:22 34.677855 -117.015059 43 29198ft 492kts
12-Jan-20 09:23 34.766674 -116.887968 43 29198ft 493kts
12-Jan-20 09:24 34.853625 -116.763120 42 29199ft 467kts
12-Jan-20 09:25 34.936433 -116.644297 42 28399ft 450kts
12-Jan-20 09:26 35.016244 -116.528765 42 26372ft 440kts
12-Jan-20 09:27 35.094125 -116.415817 42 24452ft 427kts
12-Jan-20 09:28 35.175043 -116.311958 37 22797ft 418kts
12-Jan-20 09:29 35.255103 -116.211984 38 21259ft 405kts
12-Jan-20 09:30 35.332557 -116.114359 37 19768ft 394kts
12-Jan-20 09:31 35.407986 -116.019752 37 18145ft 381kts
12-Jan-20 09:32 35.481235 -115.927530 38 16737ft 374kts
12-Jan-20 09:33 35.552745 -115.836717 39 15363ft 366kts
12-Jan-20 09:34 35.620503 -115.750221 39 14061ft 333kts
12-Jan-20 09:35 35.682411 -115.671107 40 13040ft 311kts
12-Jan-20 09:36 35.742886 -115.594652 33 12989ft 309kts
12-Jan-20 09:37 35.821675 -115.571871 357 12997ft 289kts
12-Jan-20 09:38 35.902195 -115.567441 357 12998ft 289kts
12-Jan-20 09:39 35.979994 -115.545078 39 12865ft 314kts
12-Jan-20 09:40 36.009149 -115.441829 65 11703ft 312kts
12-Jan-20 09:41 36.028776 -115.343270 90 10650ft 292kts
12-Jan-20 09:42 36.021791 -115.246181 95 9498ft 275kts
12-Jan-20 09:43 36.015275 -115.153965 95 8608ft 264kts
12-Jan-20 09:44 36.009430 -115.067075 94 7994ft 241kts
12-Jan-20 09:45 36.004777 -114.986089 95 8003ft 235kts
12-Jan-20 09:46 36.000095 -114.904705 87 7999ft 238kts
12-Jan-20 09:47 36.049572 -114.873697 325 6774ft 237kts
12-Jan-20 09:48 36.075580 -114.945176 272 5374ft 226kts
12-Jan-20 09:49 36.073781 -115.019309 269 3899ft 204kts
12-Jan-20 09:50 36.073709 -115.082413 269 2875ft 160kts
12-Jan-20 09:51 36.073698 -115.134431 267 2190ft 135kts
12-Jan-20 09:52 36.075409 -115.146526 353 2189ft 0kts
12-Jan-20 09:53 36.076502 -115.146552 0 2189ft 11kts
12-Jan-20 09:54 36.078423 -115.145356 93 2189ft 17kts
12-Jan-20 09:55 36.079011 -115.139314 44 2189ft 14kts
12-Jan-20 09:56 36.080438 -115.138105 319 2189ft 4kts
12-Jan-20 09:57 36.080789 -115.138531 315 2189ft 0kts
12-Jan-20 09:58 36.080789 -115.138531 315 2189ft 0kts
12-Jan-20 09:59 36.080789 -115.138531 315 2189ft 0kts
12-Jan-20 10:00 36.080789 -115.138531 315 2189ft 0kts
12-Jan-20 10:01 36.080789 -115.138531 315 2189ft 0kts
12-Jan-20 10:02 36.080789 -115.138531 315 2189ft 0kts
12-Jan-20 10:03 36.080789 -115.138531 315 2189ft 0kts
12-Jan-20 10:04 36.080789 -115.138531 315 2189ft 0kts

Navigation Log

Ident Type
Flight plan parsing failed, navigation log unavailable